createdAt,value
2022-09-10T00:04:31.461Z,2.50
2022-09-10T00:09:28.589Z,2.72
2022-09-10T00:14:28.869Z,2.85
2022-09-10T00:19:30.738Z,2.80
2022-09-10T00:24:28.619Z,2.47
2022-09-10T00:29:31.329Z,2.47
2022-09-10T00:34:28.387Z,2.17
2022-09-10T00:39:27.214Z,2.25
2022-09-10T00:44:59.716Z,2.30
2022-09-10T00:50:02.503Z,2.30
2022-09-10T00:55:00.054Z,1.95
2022-09-10T01:00:11.974Z,2.50
2022-09-10T01:05:11.155Z,1.73
2022-09-10T01:10:13.385Z,3.13
2022-09-10T01:15:24.901Z,2.00
2022-09-10T01:20:52.069Z,2.28
2022-09-10T01:26:04.071Z,3.08
2022-09-10T01:31:14.728Z,2.40
2022-09-10T01:36:16.598Z,1.98
2022-09-10T01:41:14.199Z,2.03
2022-09-10T01:46:29.422Z,2.60
2022-09-10T01:51:44.202Z,1.90
2022-09-10T01:56:50.144Z,2.13
2022-09-10T02:01:55.555Z,2.78
2022-09-10T02:06:56.255Z,2.10
2022-09-10T02:11:54.646Z,2.33
2022-09-10T02:17:25.695Z,2.40
2022-09-10T02:22:29.108Z,2.60
2022-09-10T02:27:29.587Z,2.58
2022-09-10T02:32:28.359Z,2.17
2022-09-10T02:37:25.519Z,1.95
2022-09-10T02:42:34.587Z,2.58
2022-09-10T02:47:36.498Z,1.95
2022-09-10T02:52:34.123Z,1.95
2022-09-10T02:57:31.653Z,2.85
2022-09-10T03:02:28.916Z,2.40
2022-09-10T03:07:26.839Z,2.35
2022-09-10T03:12:24.373Z,2.45
2022-09-10T03:17:22.873Z,2.28
2022-09-10T03:22:20.122Z,2.95
2022-09-10T03:27:22.231Z,2.10
2022-09-10T03:32:23.607Z,2.58
2022-09-10T03:37:24.933Z,2.38
2022-09-10T03:42:23.401Z,6.78
2022-09-10T03:47:21.226Z,4.13
2022-09-10T03:52:22.512Z,3.13
2022-09-10T03:57:21.699Z,2.85
2022-09-10T04:02:24.447Z,2.58
2022-09-10T04:07:26.586Z,3.42
2022-09-10T04:12:28.282Z,2.55
2022-09-10T04:17:29.955Z,2.55
2022-09-10T04:22:28.654Z,3.00
2022-09-10T04:27:28.125Z,2.55
2022-09-10T04:32:28.676Z,2.25
2022-09-10T04:37:27.518Z,3.55
2022-09-10T04:42:25.439Z,3.40
2022-09-10T04:47:29.858Z,3.40
2022-09-10T04:52:37.476Z,2.80
2022-09-10T04:57:55.624Z,2.35
2022-09-10T05:03:02.976Z,2.58
2022-09-10T05:13:33.920Z,2.80
2022-09-10T05:18:45.231Z,3.13
2022-09-10T05:23:43.760Z,3.10
2022-09-10T05:28:43.035Z,2.90
2022-09-10T05:33:44.554Z,3.15
2022-09-10T05:48:54.559Z,2.20
2022-09-10T05:53:54.737Z,3.47
2022-09-10T05:58:53.920Z,2.55
2022-09-10T06:03:58.461Z,2.33
2022-09-10T06:08:58.955Z,4.03
2022-09-10T06:14:50.984Z,2.80
2022-09-10T06:20:09.029Z,3.53
2022-09-10T06:25:14.194Z,2.42
2022-09-10T06:30:14.314Z,2.65
2022-09-10T06:35:32.444Z,3.70
2022-09-10T06:41:00.287Z,2.35
2022-09-10T06:46:32.336Z,2.73
2022-09-10T06:51:39.864Z,2.63
2022-09-10T06:56:42.921Z,2.78
2022-09-10T07:01:48.132Z,2.50
2022-09-10T07:06:48.263Z,2.58
2022-09-10T07:11:54.662Z,3.10
2022-09-10T07:16:53.004Z,3.15
2022-09-10T14:16:27.201Z,8.27
2022-09-10T14:21:49.644Z,4.57
2022-09-10T14:27:15.604Z,4.20
2022-09-10T14:32:27.890Z,5.40
2022-09-10T14:37:47.799Z,4.88
2022-09-10T14:42:48.209Z,4.30
2022-09-10T14:48:00.155Z,4.65
2022-09-10T14:52:57.829Z,5.03
2022-09-10T14:57:58.097Z,5.28
2022-09-10T15:03:04.450Z,4.72
2022-09-10T15:08:18.321Z,4.72
2022-09-10T15:13:27.963Z,5.20
2022-09-10T15:25:08.131Z,5.18
2022-09-10T15:30:11.299Z,7.40
2022-09-10T15:35:30.801Z,4.65
2022-09-10T15:40:30.818Z,5.15
2022-09-10T15:45:38.827Z,5.97
2022-09-10T15:50:56.992Z,10.75
2022-09-10T15:55:57.843Z,5.93
2022-09-10T16:00:55.831Z,6.32
2022-09-10T16:05:53.891Z,6.28
2022-09-10T16:10:54.950Z,7.93
2022-09-10T16:16:02.866Z,7.80
2022-09-10T16:21:23.308Z,5.50
2022-09-10T16:26:33.789Z,5.78
2022-09-10T16:31:46.831Z,5.72
2022-09-10T16:37:25.175Z,6.07
2022-09-10T16:42:37.482Z,5.45
2022-09-10T16:48:04.731Z,5.38
2022-09-10T16:53:23.511Z,5.22
2022-09-10T16:58:35.799Z,5.05
2022-09-10T17:04:16.775Z,4.35
2022-09-10T17:09:29.187Z,3.40
2022-09-10T17:14:32.161Z,4.95
2022-09-10T17:19:42.302Z,2.90
2022-09-10T17:24:41.233Z,4.00
2022-09-10T17:29:51.792Z,4.72
2022-09-10T17:35:50.078Z,3.30
2022-09-10T17:41:57.780Z,3.85
2022-09-10T17:48:28.235Z,5.40
2022-09-10T17:54:14.620Z,3.60
2022-09-10T17:59:38.372Z,3.97
2022-09-10T18:04:41.721Z,3.90
2022-09-10T18:10:19.352Z,4.40
2022-09-10T18:15:34.635Z,4.90
2022-09-10T18:27:33.276Z,5.90
2022-09-10T18:51:47.432Z,4.03
2022-09-10T18:57:53.514Z,4.65
2022-09-10T19:04:06.051Z,4.25
2022-09-10T19:10:46.709Z,4.93
2022-09-10T20:18:32.112Z,5.95
2022-09-10T20:23:53.270Z,5.93
2022-09-10T20:29:31.229Z,6.20
2022-09-10T20:34:37.877Z,6.82
2022-09-10T20:40:34.608Z,6.75
2022-09-10T20:46:07.643Z,5.68
2022-09-10T20:52:12.273Z,7.07
2022-09-10T20:57:22.863Z,6.97
2022-09-10T21:15:01.181Z,6.07
2022-09-10T21:32:48.935Z,6.03
2022-09-10T21:38:12.364Z,5.07
2022-09-10T21:43:43.565Z,5.20
2022-09-10T21:48:56.994Z,5.45
2022-09-10T21:54:33.310Z,4.43
2022-09-10T21:59:55.049Z,4.10
2022-09-10T22:05:06.424Z,5.43
2022-09-10T22:10:08.913Z,4.50
2022-09-10T22:15:23.725Z,4.50
2022-09-10T22:20:25.272Z,5.05
2022-09-10T22:25:24.786Z,4.45
2022-09-10T22:30:25.050Z,4.07
2022-09-10T22:35:31.103Z,4.25
2022-09-10T22:40:55.220Z,4.53
2022-09-10T22:46:08.722Z,4.88
2022-09-10T22:51:27.219Z,5.10
2022-09-10T22:56:41.397Z,4.63
2022-09-10T23:01:54.901Z,4.38
2022-09-10T23:07:15.046Z,5.15
2022-09-10T23:12:14.776Z,5.75
2022-09-10T23:17:22.316Z,5.85
2022-09-10T23:22:29.703Z,6.00
2022-09-10T23:27:42.228Z,6.03
2022-09-10T23:32:58.108Z,6.88
2022-09-10T23:38:09.901Z,7.00
2022-09-10T23:43:22.178Z,8.00
2022-09-10T23:48:19.195Z,5.93
2022-09-10T23:53:19.668Z,7.07
2022-09-10T23:58:24.580Z,7.00
